Time;durP1;ratioP1;P1;durP2;ratioP2;P2;SDS_P1;SDS_P2;PMS_P1;PMS_P2;Temp;Humidity;BMP_temperature;BMP_pressure;BME280_temperature;BME280_humidity;BME280_pressure;Samples;Min_cycle;Max_cycle;Signal;HPM_P1;HPM_P2
2021/12/24 00:00:36;;;;;;;1.13;0.70;;;17.50;54.40;;;;;;5125959;28;20857;-41
2021/12/24 00:03:02;;;;;;;0.98;0.70;;;17.40;54.30;;;;;;5125956;28;20095;-40
2021/12/24 00:05:28;;;;;;;0.98;0.70;;;17.40;54.30;;;;;;5126090;28;20043;-39
2021/12/24 00:07:54;;;;;;;0.77;0.70;;;17.40;54.30;;;;;;5123485;27;20023;-39
2021/12/24 00:10:21;;;;;;;0.68;0.60;;;17.50;54.60;;;;;;5111496;28;20032;-39
2021/12/24 00:12:55;;;;;;;1.77;0.70;;;17.50;54.70;;;;;;5125836;28;20032;-39
2021/12/24 00:16:02;;;;;;;0.63;0.63;;;17.50;54.80;;;;;;5125964;28;20080;-39
2021/12/24 00:18:36;;;;;;;2.03;0.68;;;17.50;54.60;;;;;;5123667;28;20059;-40
2021/12/24 00:35:12;;;;;;;1.23;0.80;;;17.50;54.70;;;;;;5082192;28;20050;-39
2021/12/24 00:37:43;;;;;;;0.98;0.60;;;17.50;54.80;;;;;;5081761;28;20032;-41
2021/12/24 00:40:17;;;;;;;1.70;0.80;;;17.50;54.70;;;;;;5081308;28;20561;-39
2021/12/24 00:42:45;;;;;;;4.97;1.23;;;17.50;54.50;;;;;;5065997;28;20044;-39
2021/12/24 00:45:16;;;;;;;0.82;0.80;;;17.50;54.50;;;;;;5064344;28;20566;-39
2021/12/24 00:47:42;;;;;;;1.45;0.70;;;17.50;54.50;;;;;;5061556;28;20029;-39
2021/12/24 00:50:12;;;;;;;1.23;0.60;;;17.40;54.40;;;;;;5061634;28;20281;-40
2021/12/24 00:52:48;;;;;;;1.17;0.57;;;17.40;54.50;;;;;;5061482;28;20029;-39
2021/12/24 00:55:19;;;;;;;1.20;0.80;;;17.40;54.60;;;;;;5061518;28;20045;-45
2021/12/24 00:57:50;;;;;;;1.17;0.80;;;17.50;54.80;;;;;;5066543;28;20062;-39
2021/12/24 01:00:24;;;;;;;2.10;0.90;;;17.50;54.80;;;;;;5071504;28;20036;-40
2021/12/24 01:02:51;;;;;;;2.55;0.80;;;17.50;54.70;;;;;;5081317;28;20140;-42
2021/12/24 01:05:18;;;;;;;1.50;0.90;;;17.50;54.60;;;;;;5081486;28;20028;-41
2021/12/24 01:07:49;;;;;;;1.00;0.70;;;17.50;54.60;;;;;;5091575;28;20132;-40
2021/12/24 01:10:17;;;;;;;1.17;0.90;;;17.40;54.50;;;;;;5109235;28;20043;-41
2021/12/24 01:12:43;;;;;;;0.70;0.60;;;17.40;54.60;;;;;;5124491;28;20036;-39
2021/12/24 01:15:10;;;;;;;1.00;0.90;;;17.30;54.60;;;;;;5124687;28;20051;-39
2021/12/24 01:17:45;;;;;;;0.95;0.68;;;17.40;54.70;;;;;;5124435;28;20493;-39
2021/12/24 01:20:22;;;;;;;0.88;0.80;;;17.40;54.80;;;;;;5124584;28;20091;-40
2021/12/24 01:23:23;;;;;;;1.17;0.60;;;17.50;54.90;;;;;;5124387;28;20036;-39
2021/12/24 01:28:29;;;;;;;0.90;0.75;;;17.50;54.60;;;;;;5124641;28;20083;-39
2021/12/24 01:44:14;;;;;;;0.90;0.70;;;17.50;55.40;;;;;;5103285;28;20101;-39
2021/12/24 01:46:41;;;;;;;0.98;0.75;;;17.50;54.60;;;;;;5103618;28;20028;-39
2021/12/24 01:49:07;;;;;;;0.80;0.70;;;17.40;54.60;;;;;;5110707;28;20039;-40
2021/12/24 01:51:33;;;;;;;1.43;0.93;;;17.40;54.60;;;;;;5124306;28;20032;-40
2021/12/24 01:53:59;;;;;;;1.70;1.00;;;17.40;54.60;;;;;;5123527;28;20049;-39
2021/12/24 01:56:25;;;;;;;0.82;0.80;;;17.30;54.60;;;;;;5123851;28;20031;-39
2021/12/24 01:58:51;;;;;;;1.20;0.85;;;17.40;54.80;;;;;;5123648;28;20635;-40
2021/12/24 02:01:18;;;;;;;1.23;0.82;;;17.50;54.90;;;;;;5122563;28;20130;-42
2021/12/24 02:03:44;;;;;;;0.95;0.85;;;17.50;54.90;;;;;;5123308;28;20063;-40
2021/12/24 02:06:10;;;;;;;0.98;0.77;;;17.50;54.70;;;;;;5123692;28;20027;-39
2021/12/24 02:08:36;;;;;;;1.52;0.70;;;17.50;54.60;;;;;;5115152;28;20109;-39
2021/12/24 02:11:02;;;;;;;0.82;0.70;;;17.40;55.10;;;;;;5114685;28;20095;-40
2021/12/24 02:13:28;;;;;;;0.95;0.77;;;17.40;54.60;;;;;;5123352;28;20468;-40
2021/12/24 02:29:17;;;;;;;1.35;0.75;;;17.50;54.60;;;;;;5123304;28;20076;-40
2021/12/24 02:31:43;;;;;;;0.85;0.73;;;17.40;54.70;;;;;;5123162;28;20027;-43
2021/12/24 02:34:10;;;;;;;0.93;0.80;;;17.40;54.70;;;;;;5123102;28;20035;-41
2021/12/24 02:36:36;;;;;;;0.80;0.80;;;17.30;54.70;;;;;;5123085;28;20016;-40
2021/12/24 02:39:03;;;;;;;3.78;0.90;;;17.40;54.80;;;;;;5117398;28;20130;-40
2021/12/24 02:41:29;;;;;;;0.88;0.60;;;17.40;55.50;;;;;;5122988;28;20047;-40
2021/12/24 02:43:55;;;;;;;1.25;0.75;;;17.50;55.00;;;;;;5123042;28;20221;-40
2021/12/24 02:46:28;;;;;;;0.90;0.77;;;17.50;54.70;;;;;;5123079;28;20027;-40
2021/12/24 02:54:10;;;;;;;1.40;0.85;;;17.40;54.70;;;;;;5122699;28;20060;-39
2021/12/24 02:56:37;;;;;;;1.45;0.77;;;17.30;54.70;;;;;;5122966;28;20019;-39
2021/12/24 02:59:11;;;;;;;1.05;0.88;;;17.30;54.80;;;;;;5123096;28;20042;-40
2021/12/24 03:01:38;;;;;;;1.38;0.75;;;17.40;54.90;;;;;;5122990;28;20057;-40
2021/12/24 03:04:05;;;;;;;0.70;0.57;;;17.50;54.90;;;;;;5122536;28;20075;-39
2021/12/24 03:06:33;;;;;;;1.38;1.02;;;17.50;54.80;;;;;;5122608;28;20080;-39
2021/12/24 03:08:59;;;;;;;1.38;0.85;;;17.50;54.70;;;;;;5121959;28;20046;-40
2021/12/24 03:11:25;;;;;;;0.70;0.70;;;17.40;54.70;;;;;;5122858;28;20039;-39
2021/12/24 03:13:52;;;;;;;0.75;0.68;;;17.30;54.70;;;;;;5122988;28;20027;-40
2021/12/24 03:16:19;;;;;;;0.82;0.70;;;17.30;54.80;;;;;;5122642;28;20027;-40
2021/12/24 03:18:46;;;;;;;1.05;0.82;;;17.30;54.80;;;;;;5122650;28;20032;-39
2021/12/24 03:21:14;;;;;;;0.85;0.60;;;17.40;54.90;;;;;;5122618;28;20024;-42
2021/12/24 03:24:34;;;;;;;0.98;0.80;;;17.50;55.00;;;;;;5124553;28;20072;-39
2021/12/24 03:26:39;;;;;;;1.20;0.90;;;17.50;54.80;;;;;;5126407;28;20027;-41
2021/12/24 03:29:07;;;;;;;1.60;1.10;;;17.40;54.70;;;;;;5126701;28;20019;-40
2021/12/24 03:31:33;;;;;;;0.95;0.80;;;17.40;54.70;;;;;;5126692;28;20081;-39
2021/12/24 03:34:00;;;;;;;1.03;0.83;;;17.30;54.80;;;;;;5126540;28;20076;-39
2021/12/24 03:36:26;;;;;;;1.88;1.00;;;17.20;54.80;;;;;;5126284;28;20028;-41
2021/12/24 03:38:53;;;;;;;1.10;1.00;;;17.30;54.90;;;;;;5125228;28;20042;-39
2021/12/24 03:41:19;;;;;;;1.52;0.93;;;17.40;55.00;;;;;;5126277;28;20028;-39
2021/12/24 03:43:46;;;;;;;1.60;1.00;;;17.50;55.00;;;;;;5126532;28;20104;-40
2021/12/24 03:46:16;;;;;;;0.93;0.70;;;17.50;54.80;;;;;;5125878;28;20040;-40
2021/12/24 03:48:58;;;;;;;1.05;0.77;;;17.40;54.70;;;;;;5126020;28;20036;-40
2021/12/24 03:57:02;;;;;;;1.40;0.98;;;17.30;54.80;;;;;;5105655;28;20043;-39
2021/12/24 03:59:28;;;;;;;1.23;0.93;;;17.30;54.90;;;;;;5117183;28;20022;-39
2021/12/24 04:01:54;;;;;;;1.33;0.95;;;17.40;55.00;;;;;;5126074;28;20039;-39
2021/12/24 04:04:20;;;;;;;1.73;1.10;;;17.50;55.00;;;;;;5125937;28;20035;-41
2021/12/24 04:06:47;;;;;;;1.35;0.90;;;17.50;54.80;;;;;;5126023;28;20051;-40
2021/12/24 04:09:13;;;;;;;1.10;0.90;;;17.40;54.70;;;;;;5112447;28;20043;-40
2021/12/24 04:11:40;;;;;;;1.48;0.98;;;17.30;54.80;;;;;;5122503;28;20073;-42
2021/12/24 04:14:06;;;;;;;1.33;1.05;;;17.30;54.90;;;;;;5126001;28;20020;-40
2021/12/24 04:16:32;;;;;;;1.23;1.05;;;17.30;54.90;;;;;;5125516;28;20036;-39
2021/12/24 04:27:12;;;;;;;1.30;1.00;;;17.40;54.70;;;;;;5125324;28;20095;-39
2021/12/24 04:29:39;;;;;;;1.52;1.10;;;17.30;54.80;;;;;;5125425;28;20031;-42
2021/12/24 04:32:12;;;;;;;1.40;1.05;;;17.30;54.80;;;;;;5125364;28;20065;-39
2021/12/24 04:34:42;;;;;;;1.35;1.10;;;17.30;54.90;;;;;;5124624;28;20031;-39
2021/12/24 04:51:22;;;;;;;1.98;1.40;;;17.30;54.90;;;;;;5041662;28;20044;-41
2021/12/24 05:02:34;;;;;;;0.90;0.80;;;17.40;54.70;;;;;;5041490;28;20040;-39
2021/12/24 05:05:09;;;;;;;1.63;1.40;;;17.30;54.70;;;;;;5040920;28;20037;-39
2021/12/24 05:08:09;;;;;;;;;;;17.30;54.80;;;;;;5041733;28;20026;-41
2021/12/24 05:10:37;;;;;;;1.70;1.10;;;17.30;54.90;;;;;;5035827;28;19909;-39
2021/12/24 05:13:03;;;;;;;2.17;1.20;;;17.40;54.90;;;;;;5041217;28;20045;-40
2021/12/24 05:15:31;;;;;;;1.30;0.95;;;17.40;54.90;;;;;;5041193;28;20083;-39
2021/12/24 05:23:07;;;;;;;1.70;1.30;;;17.30;54.70;;;;;;5112747;28;20103;-41
2021/12/24 05:25:35;;;;;;;1.30;1.02;;;17.30;54.90;;;;;;5124144;28;20100;-39
2021/12/24 05:28:02;;;;;;;2.35;1.27;;;17.40;54.90;;;;;;5122529;28;20040;-40
2021/12/24 05:30:28;;;;;;;1.85;1.20;;;17.40;54.90;;;;;;5112322;28;20464;-39
2021/12/24 05:32:54;;;;;;;2.13;1.27;;;17.50;54.90;;;;;;5105235;28;20032;-40
2021/12/24 05:35:20;;;;;;;1.45;1.23;;;17.40;54.70;;;;;;5124076;27;20049;-39
2021/12/24 05:37:46;;;;;;;1.83;1.38;;;17.40;54.70;;;;;;5122897;28;20585;-39
2021/12/24 05:40:12;;;;;;;2.25;1.63;;;17.30;54.70;;;;;;5108390;28;20072;-38
2021/12/24 05:42:38;;;;;;;1.65;1.13;;;17.20;54.70;;;;;;5123614;27;20056;-39
2021/12/24 05:45:07;;;;;;;1.70;1.30;;;17.30;54.90;;;;;;5123814;28;20050;-41
2021/12/24 05:47:33;;;;;;;2.17;1.25;;;17.40;54.90;;;;;;5123587;28;20111;-39
2021/12/24 05:50:00;;;;;;;1.77;1.25;;;17.40;54.80;;;;;;5123696;28;20047;-43
2021/12/24 05:52:26;;;;;;;2.58;1.15;;;17.40;54.60;;;;;;5123637;28;20372;-38
2021/12/24 05:54:52;;;;;;;1.58;1.27;;;17.40;54.70;;;;;;5123833;28;20053;-38
2021/12/24 05:57:18;;;;;;;1.90;1.23;;;17.30;54.70;;;;;;5123529;28;20812;-39
2021/12/24 05:59:45;;;;;;;1.85;1.50;;;17.30;54.90;;;;;;5123579;28;20042;-38
2021/12/24 06:02:11;;;;;;;2.20;1.17;;;17.40;54.90;;;;;;5123750;28;20031;-40
2021/12/24 06:04:37;;;;;;;1.38;1.27;;;17.50;54.90;;;;;;5123730;28;20035;-39
2021/12/24 06:07:03;;;;;;;1.98;1.35;;;17.50;54.80;;;;;;5123299;28;20023;-39
2021/12/24 06:09:29;;;;;;;2.05;1.38;;;17.40;54.70;;;;;;5108587;28;20049;-41
2021/12/24 06:11:55;;;;;;;2.00;1.50;;;17.30;54.70;;;;;;5102980;28;20412;-39
2021/12/24 06:14:21;;;;;;;1.30;1.10;;;17.30;54.80;;;;;;5103166;28;20035;-39
2021/12/24 06:16:51;;;;;;;1.30;1.13;;;17.30;54.90;;;;;;5103264;28;20024;-39
2021/12/24 06:19:18;;;;;;;1.75;1.38;;;17.40;54.90;;;;;;5102919;28;20032;-41
2021/12/24 06:21:44;;;;;;;1.65;1.30;;;17.50;55.00;;;;;;5102945;28;20035;-39
2021/12/24 06:24:12;;;;;;;1.23;1.10;;;17.50;54.80;;;;;;5102669;28;20477;-39
2021/12/24 06:26:39;;;;;;;1.80;1.30;;;17.40;54.70;;;;;;5102720;28;20032;-39
2021/12/24 06:29:05;;;;;;;2.25;1.52;;;17.40;54.70;;;;;;5103090;28;20035;-39
2021/12/24 06:31:31;;;;;;;2.00;1.45;;;17.30;54.80;;;;;;5123274;28;20023;-39
2021/12/24 06:33:57;;;;;;;2.15;1.50;;;17.20;54.80;;;;;;5123293;28;20479;-39
2021/12/24 06:36:23;;;;;;;1.30;1.20;;;17.30;54.90;;;;;;5123158;28;20043;-41
2021/12/24 06:38:50;;;;;;;1.58;1.23;;;17.40;55.00;;;;;;5112544;28;20032;-39
2021/12/24 06:41:16;;;;;;;2.30;1.67;;;17.50;54.90;;;;;;5116206;28;20035;-39
2021/12/24 06:43:42;;;;;;;1.77;1.42;;;17.50;54.90;;;;;;5122745;28;20036;-39
2021/12/24 06:46:12;;;;;;;2.58;1.75;;;17.40;54.70;;;;;;5123285;28;20059;-42
2021/12/24 06:48:38;;;;;;;2.28;1.50;;;17.40;54.70;;;;;;5122698;28;20035;-40
2021/12/24 06:51:04;;;;;;;1.67;1.30;;;17.30;54.80;;;;;;5122942;28;20749;-39
2021/12/24 06:53:30;;;;;;;1.58;1.30;;;17.30;54.90;;;;;;5122834;28;20023;-39
2021/12/24 06:55:56;;;;;;;2.47;1.60;;;17.40;55.00;;;;;;5122701;28;20087;-39
2021/12/24 06:58:22;;;;;;;1.92;1.38;;;17.40;54.90;;;;;;5122367;28;20059;-39
2021/12/24 07:00:48;;;;;;;1.58;1.42;;;17.50;54.90;;;;;;5117492;28;20020;-39
2021/12/24 07:03:14;;;;;;;2.05;1.40;;;17.40;54.70;;;;;;5106474;28;20027;-39
2021/12/24 07:05:41;;;;;;;2.13;1.45;;;17.40;54.70;;;;;;5122893;28;20032;-39
2021/12/24 07:08:07;;;;;;;1.95;1.67;;;17.30;54.80;;;;;;5123275;28;20043;-39
2021/12/24 07:10:33;;;;;;;3.00;1.30;;;17.20;54.90;;;;;;5114777;28;20028;-39
2021/12/24 07:12:59;;;;;;;2.03;1.50;;;17.30;54.90;;;;;;5102172;28;20030;-39
2021/12/24 07:15:25;;;;;;;2.22;1.60;;;17.40;54.90;;;;;;5102352;28;20031;-39
2021/12/24 07:17:51;;;;;;;1.83;1.50;;;17.50;54.90;;;;;;5119186;28;20030;-38
2021/12/24 07:20:17;;;;;;;2.15;1.38;;;17.50;54.70;;;;;;5122966;28;20039;-39
2021/12/24 07:22:43;;;;;;;2.05;1.35;;;17.40;54.70;;;;;;5122558;28;20114;-39
2021/12/24 07:25:10;;;;;;;1.98;1.67;;;17.30;54.70;;;;;;5122344;28;20059;-39
2021/12/24 07:27:36;;;;;;;1.77;1.45;;;17.30;54.80;;;;;;5122837;28;20083;-39
2021/12/24 07:30:03;;;;;;;1.90;1.30;;;17.20;54.80;;;;;;5122447;28;20049;-39
2021/12/24 07:32:29;;;;;;;;;;;17.30;54.90;;;;;;5123017;28;20027;-39
2021/12/24 07:34:55;;;;;;;2.15;1.52;;;17.40;54.90;;;;;;5122411;28;19907;-39
2021/12/24 07:37:21;;;;;;;1.70;1.50;;;17.50;54.80;;;;;;5122656;28;20050;-40
2021/12/24 07:39:47;;;;;;;2.22;1.40;;;17.50;54.70;;;;;;5121417;28;20024;-39
2021/12/24 07:42:13;;;;;;;2.40;1.58;;;17.40;54.70;;;;;;5122070;28;20057;-39
2021/12/24 07:44:40;;;;;;;2.45;1.88;;;17.30;54.70;;;;;;5122207;28;20046;-40
2021/12/24 07:47:14;;;;;;;1.98;1.58;;;17.30;54.80;;;;;;5122629;28;20020;-40
2021/12/24 07:49:42;;;;;;;2.00;1.48;;;17.30;54.90;;;;;;5121262;28;20060;-39
2021/12/24 07:52:08;;;;;;;2.20;1.52;;;17.30;54.80;;;;;;5122044;28;20054;-40
2021/12/24 07:54:46;;;;;;;1.80;1.40;;;17.40;54.80;;;;;;5122175;28;20034;-39
2021/12/24 07:57:12;;;;;;;;;;;17.40;54.70;;;;;;5122685;28;20044;-39
2021/12/24 07:59:39;;;;;;;1.77;1.55;;;17.40;54.60;;;;;;5122330;28;19911;-41
2021/12/24 08:02:17;;;;;;;2.50;2.03;;;17.40;54.70;;;;;;5122475;28;20043;-39
2021/12/24 08:04:44;;;;;;;2.45;1.70;;;17.20;54.70;;;;;;5122310;28;20125;-40
2021/12/24 08:07:10;;;;;;;;;;;17.30;54.90;;;;;;5122816;28;20068;-39
2021/12/24 08:09:37;;;;;;;1.92;1.40;;;17.30;54.90;;;;;;5105412;28;19930;-39
2021/12/24 08:12:10;;;;;;;2.03;1.60;;;17.40;54.90;;;;;;5105461;28;20036;-39
2021/12/24 08:14:36;;;;;;;2.65;1.65;;;17.50;54.80;;;;;;5105505;28;20067;-39
2021/12/24 08:17:03;;;;;;;2.25;1.50;;;17.40;54.60;;;;;;5105630;28;20051;-39
2021/12/24 08:19:29;;;;;;;2.15;1.70;;;17.30;54.60;;;;;;5105092;28;20027;-39
2021/12/24 08:21:56;;;;;;;2.63;1.80;;;17.30;54.80;;;;;;5105346;28;20032;-39
2021/12/24 08:24:22;;;;;;;2.05;1.60;;;17.20;54.80;;;;;;5105263;28;20132;-39
2021/12/24 08:26:48;;;;;;;2.53;1.60;;;17.30;54.90;;;;;;5104873;28;20036;-40
2021/12/24 08:29:15;;;;;;;1.35;1.23;;;17.40;54.90;;;;;;5106769;28;20024;-41
2021/12/24 08:31:41;;;;;;;2.13;1.83;;;17.50;54.80;;;;;;5125469;28;20031;-39
2021/12/24 08:34:07;;;;;;;2.08;1.50;;;17.50;54.70;;;;;;5125566;28;20027;-39
2021/12/24 08:36:34;;;;;;;1.90;1.55;;;17.40;54.60;;;;;;5125513;28;20024;-42
2021/12/24 08:39:00;;;;;;;3.10;1.50;;;17.40;54.70;;;;;;5123972;28;20051;-39
2021/12/24 08:41:26;;;;;;;2.40;1.50;;;17.20;54.70;;;;;;5125372;28;20030;-40
2021/12/24 08:43:52;;;;;;;2.25;1.40;;;17.30;54.90;;;;;;5125102;28;20140;-39
2021/12/24 08:46:18;;;;;;;1.98;1.70;;;17.30;54.80;;;;;;5124815;28;20028;-39
2021/12/24 08:48:44;;;;;;;2.78;1.73;;;17.40;54.80;;;;;;5125115;28;20031;-39
2021/12/24 08:51:11;;;;;;;2.05;1.67;;;17.40;54.70;;;;;;5125041;28;20031;-39
2021/12/24 08:53:38;;;;;;;2.22;1.70;;;17.40;54.60;;;;;;5125277;28;20039;-39
2021/12/24 08:56:05;;;;;;;3.10;1.95;;;17.40;54.60;;;;;;5124807;28;20037;-40
2021/12/24 08:58:32;;;;;;;2.60;1.83;;;17.30;54.60;;;;;;5125055;28;20023;-39
2021/12/24 09:00:59;;;;;;;2.13;1.70;;;17.20;54.70;;;;;;5110354;28;20036;-39
2021/12/24 09:03:25;;;;;;;2.05;1.52;;;17.30;54.90;;;;;;5124769;28;20039;-39
2021/12/24 09:05:51;;;;;;;2.58;1.70;;;17.40;54.80;;;;;;5124970;28;20024;-39
2021/12/24 09:08:17;;;;;;;2.13;1.55;;;17.40;54.70;;;;;;5124162;27;20090;-39
2021/12/24 09:10:43;;;;;;;2.63;1.80;;;17.40;54.60;;;;;;5124368;28;20091;-40
2021/12/24 09:13:10;;;;;;;2.28;1.42;;;17.40;54.50;;;;;;5124718;28;20028;-39
2021/12/24 09:15:37;;;;;;;2.03;1.45;;;17.30;54.60;;;;;;5124620;28;20079;-40
2021/12/24 09:18:04;;;;;;;2.58;2.05;;;17.20;54.60;;;;;;5124402;28;20038;-39
2021/12/24 09:20:36;;;;;;;2.42;1.80;;;17.30;54.80;;;;;;5123944;28;20084;-40
2021/12/24 09:23:02;;;;;;;2.60;1.73;;;17.40;54.80;;;;;;5124547;28;20023;-39
2021/12/24 09:25:29;;;;;;;1.90;1.47;;;17.50;54.70;;;;;;5124141;28;20691;-40
2021/12/24 09:27:55;;;;;;;1.77;1.58;;;17.40;54.60;;;;;;5124469;28;20263;-40
2021/12/24 09:30:21;;;;;;;2.97;1.65;;;17.40;54.50;;;;;;5113127;28;20048;-39
2021/12/24 09:32:48;;;;;;;2.80;1.65;;;17.40;54.60;;;;;;5104526;28;20039;-39
2021/12/24 09:35:14;;;;;;;3.47;1.67;;;17.30;54.70;;;;;;5124213;28;20031;-40
2021/12/24 09:37:41;;;;;;;2.10;1.73;;;17.20;54.80;;;;;;5124067;28;20027;-40
2021/12/24 09:40:08;;;;;;;2.10;1.60;;;17.30;54.80;;;;;;5123270;28;20032;-42
2021/12/24 09:42:34;;;;;;;2.25;1.60;;;17.40;54.80;;;;;;5123824;28;20047;-40
2021/12/24 09:45:02;;;;;;;2.05;1.45;;;17.50;54.70;;;;;;5123882;28;20111;-38
2021/12/24 09:47:28;;;;;;;1.88;1.50;;;17.50;54.60;;;;;;5123603;28;20788;-39
2021/12/24 09:49:54;;;;;;;2.55;1.50;;;17.40;54.50;;;;;;5123369;28;20089;-41
2021/12/24 09:52:22;;;;;;;2.30;1.52;;;17.30;54.60;;;;;;5123592;28;20083;-39
2021/12/24 09:54:49;;;;;;;2.22;1.70;;;17.20;54.60;;;;;;5123693;28;20043;-40
2021/12/24 09:57:15;;;;;;;2.03;1.60;;;17.20;54.70;;;;;;5123615;28;20115;-39
2021/12/24 09:59:42;;;;;;;2.42;1.77;;;17.30;54.80;;;;;;5123429;28;20049;-39
2021/12/24 10:02:14;;;;;;;1.85;1.52;;;17.40;54.70;;;;;;5123550;28;20049;-39
2021/12/24 10:04:40;;;;;;;1.88;1.67;;;17.50;54.70;;;;;;5123641;28;20082;-40
2021/12/24 10:07:08;;;;;;;1.88;1.58;;;17.50;54.60;;;;;;5123873;28;20030;-39
2021/12/24 10:09:42;;;;;;;1.85;1.52;;;17.50;54.50;;;;;;5107170;28;20046;-39
2021/12/24 10:12:17;;;;;;;2.00;1.60;;;17.30;54.60;;;;;;5102742;28;20031;-39
2021/12/24 10:14:51;;;;;;;1.65;1.33;;;17.30;54.70;;;;;;5103097;28;20538;-39
2021/12/24 10:17:21;;;;;;;2.50;1.60;;;17.30;54.80;;;;;;5102945;28;20027;-39
2021/12/24 10:19:53;;;;;;;2.65;2.00;;;17.40;54.80;;;;;;5102939;28;20036;-40
2021/12/24 10:22:19;;;;;;;2.35;1.80;;;17.50;54.70;;;;;;5102880;28;20032;-40
2021/12/24 10:25:05;;;;;;;2.45;1.65;;;17.50;54.60;;;;;;5102919;28;20110;-39
2021/12/24 10:27:32;;;;;;;1.73;1.52;;;17.40;54.40;;;;;;5102683;28;20065;-40
2021/12/24 10:29:59;;;;;;;2.65;1.90;;;17.30;54.50;;;;;;5110887;28;20057;-39
2021/12/24 10:32:26;;;;;;;2.30;1.55;;;17.30;54.60;;;;;;5122640;28;20031;-39
2021/12/24 10:34:52;;;;;;;3.00;2.05;;;17.20;54.70;;;;;;5105282;28;20028;-39
2021/12/24 10:37:22;;;;;;;2.50;1.35;;;17.30;54.70;;;;;;5102827;28;20441;-39
2021/12/24 10:39:53;;;;;;;2.38;1.70;;;17.40;54.70;;;;;;5104359;28;20039;-39
2021/12/24 10:42:25;;;;;;;2.35;1.70;;;17.50;54.60;;;;;;5122744;28;20032;-39
2021/12/24 10:44:52;;;;;;;2.30;1.65;;;17.50;54.40;;;;;;5123097;28;20046;-39
2021/12/24 10:47:26;;;;;;;2.47;1.80;;;17.40;54.40;;;;;;5122830;28;20028;-40
2021/12/24 10:52:46;;;;;;;;;;;17.20;54.60;;;;;;5123103;28;20032;-39
2021/12/24 10:55:15;;;;;;;2.53;1.90;;;17.30;54.70;;;;;;5122747;28;19908;-40
2021/12/24 10:57:43;;;;;;;2.90;1.83;;;17.40;54.70;;;;;;5122621;28;20176;-40
2021/12/24 11:00:27;;;;;;;2.67;1.83;;;17.40;54.60;;;;;;5113454;28;20067;-40
2021/12/24 11:03:00;;;;;;;1.63;1.30;;;17.40;54.40;;;;;;5116494;28;20028;-39
2021/12/24 11:05:42;;;;;;;2.95;1.70;;;17.40;54.40;;;;;;5122781;28;20032;-39
2021/12/24 11:08:13;;;;;;;2.22;1.90;;;17.30;54.50;;;;;;5118473;28;20028;-39
2021/12/24 11:10:41;;;;;;;2.03;1.60;;;17.20;54.50;;;;;;5110506;28;20035;-40
2021/12/24 11:13:13;;;;;;;1.88;1.65;;;17.30;54.70;;;;;;5122535;28;20027;-39
2021/12/24 11:15:45;;;;;;;2.50;1.70;;;17.40;54.60;;;;;;5122778;28;20081;-39
2021/12/24 11:18:39;;;;;;;1.85;1.70;;;17.40;54.60;;;;;;5122495;28;20496;-39
2021/12/24 11:21:11;;;;;;;2.03;1.70;;;17.40;54.40;;;;;;5121223;28;20046;-38
2021/12/24 11:23:39;;;;;;;1.92;1.67;;;17.40;54.40;;;;;;5122401;28;20039;-39
2021/12/24 11:26:10;;;;;;;2.17;1.80;;;17.30;54.50;;;;;;5122052;28;20032;-39
2021/12/24 11:28:36;;;;;;;2.05;1.67;;;17.20;54.50;;;;;;5122412;28;20026;-39
2021/12/24 11:31:14;;;;;;;2.22;1.65;;;17.30;54.60;;;;;;5122677;28;20034;-40
2021/12/24 11:33:42;;;;;;;2.22;1.65;;;17.40;54.60;;;;;;5114429;28;20134;-41
2021/12/24 11:36:10;;;;;;;2.35;1.30;;;17.40;54.50;;;;;;5102197;28;20504;-40
2021/12/24 11:38:38;;;;;;;2.40;1.67;;;17.40;54.40;;;;;;5102062;28;20027;-39
2021/12/24 11:41:05;;;;;;;1.92;1.63;;;17.40;54.30;;;;;;5113838;28;20059;-39
2021/12/24 11:43:34;;;;;;;;;;;17.30;54.40;;;;;;5122409;28;20027;-39
2021/12/24 11:46:03;;;;;;;1.58;1.20;;;17.20;54.50;;;;;;5126296;28;19908;-40
2021/12/24 11:48:32;;;;;;;1.67;1.50;;;17.30;54.60;;;;;;5126140;28;20035;-41
2021/12/24 11:50:59;;;;;;;2.15;1.60;;;17.40;54.60;;;;;;5125987;28;20047;-39
2021/12/24 11:53:25;;;;;;;;;;;17.50;54.50;;;;;;5126014;28;20134;-41
2021/12/24 11:55:51;;;;;;;2.28;1.33;;;17.40;54.30;;;;;;5125676;28;19911;-41
2021/12/24 11:58:19;;;;;;;2.28;1.70;;;17.40;54.40;;;;;;5125924;28;20400;-40
2021/12/24 12:00:48;;;;;;;2.70;1.77;;;17.30;54.50;;;;;;5111387;28;20115;-42
2021/12/24 12:03:37;;;;;;;3.63;1.67;;;17.20;54.50;;;;;;5109548;28;20039;-39
2021/12/24 12:06:11;;;;;;;1.80;1.60;;;17.30;54.60;;;;;;5125962;28;20019;-42
2021/12/24 12:08:40;;;;;;;2.33;1.60;;;17.40;54.50;;;;;;5116060;27;20081;-39
2021/12/24 12:11:16;;;;;;;3.13;1.58;;;17.50;54.50;;;;;;5117818;28;20034;-39
2021/12/24 12:13:48;;;;;;;3.28;1.70;;;17.40;54.30;;;;;;5125515;28;20484;-39
2021/12/24 12:16:19;;;;;;;1.98;1.65;;;17.40;54.30;;;;;;5125696;28;20027;-40
2021/12/24 12:18:51;;;;;;;1.83;1.63;;;17.30;54.30;;;;;;5125737;27;20031;-40
2021/12/24 12:21:34;;;;;;;1.85;1.50;;;17.30;54.50;;;;;;5125963;28;20024;-39
2021/12/24 12:26:34;;;;;;;;;;;17.40;54.40;;;;;;5125845;28;20126;-39
2021/12/24 12:29:32;;;;;;;2.13;1.55;;;17.50;54.30;;;;;;5125339;28;19961;-40
2021/12/24 12:32:02;;;;;;;1.88;1.50;;;17.40;54.10;;;;;;5105029;28;20047;-40
2021/12/24 12:34:41;;;;;;;2.28;1.92;;;17.40;54.20;;;;;;5119477;28;20032;-39
2021/12/24 12:37:30;;;;;;;2.65;1.80;;;17.20;54.30;;;;;;5125236;28;20043;-40
2021/12/24 12:40:17;;;;;;;2.20;1.60;;;17.20;54.40;;;;;;5108526;28;20024;-39
2021/12/24 12:42:57;;;;;;;2.08;1.55;;;17.30;54.40;;;;;;5124903;28;20039;-39
2021/12/24 12:45:32;;;;;;;2.05;1.75;;;17.40;54.40;;;;;;5125488;28;20104;-39
2021/12/24 12:48:00;;;;;;;1.73;1.45;;;17.40;54.30;;;;;;5125154;28;20038;-39
2021/12/24 12:50:27;;;;;;;2.60;1.90;;;17.40;54.10;;;;;;5124695;27;20039;-41
2021/12/24 12:53:25;;;;;;;2.58;1.83;;;17.30;54.20;;;;;;5124848;28;20035;-39
2021/12/24 12:56:11;;;;;;;2.30;1.60;;;17.20;54.30;;;;;;5124065;27;20057;-39
2021/12/24 12:58:37;;;;;;;2.40;1.70;;;17.30;54.50;;;;;;5124622;28;20016;-39
2021/12/24 13:01:10;;;;;;;2.60;1.77;;;17.40;54.40;;;;;;5107572;28;20591;-40
2021/12/24 13:03:55;;;;;;;1.80;1.45;;;17.40;54.30;;;;;;5104106;28;20024;-41
2021/12/24 13:06:22;;;;;;;2.08;1.75;;;17.50;54.30;;;;;;5104164;28;20021;-40
2021/12/24 13:08:49;;;;;;;1.80;1.40;;;17.40;54.20;;;;;;5114676;28;20089;-39
2021/12/24 13:11:22;;;;;;;1.92;1.67;;;17.30;54.30;;;;;;5124452;28;20055;-41
2021/12/24 13:13:56;;;;;;;2.00;1.55;;;17.20;54.40;;;;;;5124337;28;20057;-39
2021/12/24 13:16:32;;;;;;;1.65;1.50;;;17.30;54.50;;;;;;5124755;28;20024;-39
2021/12/24 13:19:20;;;;;;;1.98;1.50;;;17.40;54.40;;;;;;5124507;28;20111;-39
2021/12/24 13:24:56;;;;;;;2.10;1.80;;;17.50;54.30;;;;;;5124092;28;20064;-39
2021/12/24 13:27:24;;;;;;;1.83;1.50;;;17.40;54.20;;;;;;5124060;28;20114;-39
2021/12/24 13:30:03;;;;;;;2.10;1.77;;;17.30;54.30;;;;;;5117201;28;20035;-39
2021/12/24 13:32:29;;;;;;;1.67;1.50;;;17.30;54.40;;;;;;5103953;28;20020;-39
2021/12/24 13:34:56;;;;;;;2.40;1.20;;;17.40;54.40;;;;;;5121872;28;20035;-39
2021/12/24 13:37:22;;;;;;;1.58;1.48;;;17.40;54.30;;;;;;5124343;28;20024;-40
2021/12/24 13:39:52;;;;;;;2.50;1.58;;;17.50;54.30;;;;;;5122919;28;20462;-39
2021/12/24 13:42:18;;;;;;;1.75;1.42;;;17.50;54.20;;;;;;5123757;28;20087;-39
2021/12/24 13:44:45;;;;;;;1.90;1.60;;;17.40;54.20;;;;;;5123668;28;20499;-39
2021/12/24 13:55:36;;;;;;;1.67;1.40;;;17.50;54.30;;;;;;5059477;28;20520;-40
2021/12/24 13:58:08;;;;;;;1.50;1.40;;;17.50;54.30;;;;;;5060072;28;20890;-39
2021/12/24 14:00:36;;;;;;;1.80;1.35;;;17.40;54.10;;;;;;5056908;28;20219;-39
2021/12/24 14:03:09;;;;;;;2.20;1.65;;;17.30;54.20;;;;;;5059946;28;20085;-39
2021/12/24 14:05:46;;;;;;;3.00;1.58;;;17.30;54.30;;;;;;5059890;28;20064;-39
2021/12/24 14:08:17;;;;;;;2.00;1.60;;;17.30;54.40;;;;;;5055381;28;20655;-39
2021/12/24 14:10:44;;;;;;;2.10;1.38;;;17.40;54.40;;;;;;5047434;28;20057;-39
2021/12/24 14:13:18;;;;;;;1.92;1.42;;;17.50;54.40;;;;;;5039984;28;20056;-39
2021/12/24 14:24:06;;;;;;;2.15;1.40;;;17.30;54.30;;;;;;5102835;28;20032;-39
2021/12/24 14:26:35;;;;;;;2.28;1.73;;;17.40;54.40;;;;;;5102819;28;20039;-39
2021/12/24 14:29:08;;;;;;;1.98;1.50;;;17.50;54.50;;;;;;5102834;28;20090;-39
2021/12/24 14:32:05;;;;;;;2.13;1.55;;;17.50;54.50;;;;;;5102649;28;20209;-39
2021/12/24 14:34:34;;;;;;;2.25;1.55;;;17.50;54.30;;;;;;5102305;28;20024;-40
2021/12/24 14:37:08;;;;;;;1.73;1.20;;;17.40;54.30;;;;;;5102708;28;20028;-39
2021/12/24 14:39:39;;;;;;;2.20;1.48;;;17.30;54.40;;;;;;5102223;28;20028;-40
2021/12/24 14:42:09;;;;;;;1.92;1.58;;;17.30;54.40;;;;;;5102446;28;20020;-39
2021/12/24 14:44:35;;;;;;;1.83;1.20;;;17.40;54.50;;;;;;5102211;28;20043;-40
2021/12/24 14:47:02;;;;;;;2.20;1.65;;;17.50;54.50;;;;;;5102598;28;20032;-39
2021/12/24 14:49:34;;;;;;;3.28;1.60;;;17.50;54.50;;;;;;5102323;28;20048;-41
2021/12/24 14:52:33;;;;;;;1.75;1.45;;;17.50;54.40;;;;;;5102511;28;20055;-40
2021/12/24 14:55:21;;;;;;;2.00;1.63;;;17.40;54.30;;;;;;5039133;28;20101;-39